createdAt,value
2018-12-26T00:00:03.918Z,36.39
2018-12-26T00:02:11.227Z,35.65
2018-12-26T00:04:18.468Z,37.40
2018-12-26T00:06:25.756Z,37.90
2018-12-26T00:08:32.688Z,37.60
2018-12-26T00:10:39.911Z,37.39
2018-12-26T00:12:48.105Z,37.89
2018-12-26T00:14:55.297Z,37.95
2018-12-26T00:17:02.545Z,37.24
2018-12-26T00:19:09.897Z,37.52
2018-12-26T00:21:17.073Z,37.09
2018-12-26T00:23:24.272Z,37.57
2018-12-26T00:25:52.647Z,37.74
2018-12-26T00:27:59.904Z,37.51
2018-12-26T00:30:20.538Z,36.90
2018-12-26T00:32:29.659Z,36.18
2018-12-26T00:34:38.358Z,37.00
2018-12-26T00:36:47.515Z,37.56
2018-12-26T00:38:54.684Z,37.65
2018-12-26T00:41:03.148Z,36.64
2018-12-26T00:43:12.272Z,36.59
2018-12-26T00:45:20.084Z,37.68
2018-12-26T00:47:27.900Z,37.26
2018-12-26T00:49:35.001Z,37.57
2018-12-26T00:51:44.588Z,37.55
2018-12-26T00:53:51.821Z,36.84
2018-12-26T00:58:28.367Z,37.60
2018-12-26T01:00:35.515Z,38.43
2018-12-26T01:02:43.507Z,37.61
2018-12-26T01:04:51.786Z,37.05
2018-12-26T01:06:59.042Z,37.64
2018-12-26T01:09:08.024Z,37.38
2018-12-26T01:11:15.721Z,37.50
2018-12-26T01:13:22.831Z,37.48
2018-12-26T01:15:31.285Z,36.94
2018-12-26T01:17:40.293Z,37.10
2018-12-26T01:19:47.449Z,36.31
2018-12-26T01:21:59.458Z,36.98
2018-12-26T01:24:17.533Z,36.96
2018-12-26T01:26:25.376Z,36.12
2018-12-26T01:28:34.494Z,36.36
2018-12-26T01:30:41.888Z,36.64
2018-12-26T01:32:49.003Z,35.39
2018-12-26T01:34:56.873Z,35.98
2018-12-26T01:37:05.516Z,36.57
2018-12-26T01:39:15.403Z,35.82
2018-12-26T01:41:30.674Z,35.38
2018-12-26T01:43:41.526Z,35.65
2018-12-26T01:45:54.676Z,35.75
2018-12-26T01:48:18.439Z,35.35
2018-12-26T01:50:27.734Z,35.80
2018-12-26T01:52:39.338Z,35.44
2018-12-26T01:57:15.394Z,35.65
2018-12-26T01:59:24.424Z,35.59
2018-12-26T02:01:37.254Z,35.83
2018-12-26T02:03:50.412Z,36.17
2018-12-26T02:08:17.293Z,36.29
2018-12-26T02:10:29.071Z,36.36
2018-12-26T02:12:37.885Z,35.80
2018-12-26T02:14:48.841Z,35.79
2018-12-26T02:16:57.562Z,35.71
2018-12-26T02:19:05.277Z,35.73
2018-12-26T02:21:13.401Z,36.65
2018-12-26T02:23:22.525Z,36.92
2018-12-26T02:25:29.862Z,36.75
2018-12-26T02:27:39.427Z,37.00
2018-12-26T02:29:49.537Z,35.98
2018-12-26T02:32:00.201Z,35.92
2018-12-26T02:34:07.482Z,35.56
2018-12-26T02:36:15.265Z,36.16
2018-12-26T02:38:24.865Z,36.67
2018-12-26T02:40:34.857Z,36.26
2018-12-26T02:42:42.059Z,37.06
2018-12-26T02:44:51.803Z,36.35
2018-12-26T02:46:59.867Z,35.27
2018-12-26T02:49:08.725Z,36.16
2018-12-26T02:51:15.918Z,36.13
2018-12-26T02:53:23.198Z,37.39
2018-12-26T02:55:30.544Z,36.20
2018-12-26T02:57:37.614Z,36.28
2018-12-26T02:59:46.419Z,35.57
2018-12-26T03:01:55.564Z,36.35
2018-12-26T03:04:04.086Z,36.11
2018-12-26T03:06:11.588Z,36.36
2018-12-26T03:08:18.883Z,35.20
2018-12-26T03:10:27.090Z,36.08
2018-12-26T03:12:34.244Z,35.70
2018-12-26T03:14:41.570Z,35.59
2018-12-26T03:16:49.640Z,35.51
2018-12-26T03:18:56.992Z,35.94
2018-12-26T03:21:14.713Z,35.10
2018-12-26T03:23:21.922Z,35.71
2018-12-26T03:25:29.485Z,36.35
2018-12-26T03:27:40.616Z,35.67
2018-12-26T03:29:49.611Z,35.05
2018-12-26T03:31:57.293Z,34.25
2018-12-26T03:34:10.903Z,34.36
2018-12-26T03:36:18.968Z,35.24
2018-12-26T03:38:29.705Z,35.85
2018-12-26T03:40:37.386Z,35.39
2018-12-26T03:42:45.264Z,35.83
2018-12-26T03:45:00.900Z,35.99
2018-12-26T03:47:09.295Z,35.27
2018-12-26T03:49:17.344Z,34.79
2018-12-26T03:51:25.446Z,35.86
2018-12-26T03:53:33.471Z,35.18
2018-12-26T03:55:41.637Z,35.37
2018-12-26T03:57:49.153Z,34.54
2018-12-26T03:59:57.753Z,35.56
2018-12-26T04:02:05.656Z,35.54
2018-12-26T04:04:13.624Z,36.65
2018-12-26T04:06:20.636Z,35.54
2018-12-26T04:08:29.114Z,34.51
2018-12-26T04:10:37.403Z,35.55
2018-12-26T04:12:44.682Z,35.81
2018-12-26T04:14:52.033Z,35.81
2018-12-26T04:17:00.131Z,35.76
2018-12-26T04:19:08.365Z,34.91
2018-12-26T04:21:15.904Z,35.33
2018-12-26T04:23:24.104Z,35.32
2018-12-26T04:25:31.478Z,35.16
2018-12-26T04:27:40.107Z,35.43
2018-12-26T04:29:48.933Z,34.67
2018-12-26T04:31:57.631Z,34.30
2018-12-26T04:34:06.378Z,34.16
2018-12-26T04:36:16.547Z,33.94
2018-12-26T04:38:26.552Z,34.61
2018-12-26T04:40:34.630Z,34.82
2018-12-26T04:42:43.053Z,34.78
2018-12-26T04:44:52.547Z,35.95
2018-12-26T04:47:01.997Z,35.15
2018-12-26T04:49:10.105Z,34.97
2018-12-26T04:51:17.496Z,34.74
2018-12-26T04:53:24.875Z,34.56
2018-12-26T04:55:32.128Z,34.34
2018-12-26T04:57:39.594Z,34.91
2018-12-26T04:59:47.433Z,34.92
2018-12-26T05:01:54.655Z,34.80
2018-12-26T05:04:03.177Z,35.33
2018-12-26T05:06:11.264Z,34.60
2018-12-26T05:08:19.272Z,34.16
2018-12-26T05:10:26.560Z,35.24
2018-12-26T05:12:34.511Z,35.45
2018-12-26T05:14:42.539Z,35.22
2018-12-26T05:16:50.592Z,34.79
2018-12-26T05:18:58.250Z,35.18
2018-12-26T05:21:05.441Z,35.27
2018-12-26T05:23:13.359Z,35.14
2018-12-26T05:25:20.621Z,35.34
2018-12-26T05:27:34.208Z,35.56
2018-12-26T05:29:37.509Z,35.24
2018-12-26T05:31:44.874Z,36.19
2018-12-26T05:33:52.280Z,35.49
2018-12-26T05:36:00.921Z,35.30
2018-12-26T05:38:08.070Z,35.60
2018-12-26T05:40:16.224Z,35.00
2018-12-26T05:42:24.137Z,34.42
2018-12-26T05:44:32.516Z,34.11
2018-12-26T05:46:39.738Z,33.94
2018-12-26T05:48:47.128Z,33.60
2018-12-26T05:50:55.191Z,32.84
2018-12-26T05:53:02.592Z,32.61
2018-12-26T05:55:09.767Z,34.01
2018-12-26T05:57:17.668Z,34.51
2018-12-26T05:59:24.649Z,34.97
2018-12-26T06:01:31.865Z,34.18
2018-12-26T06:03:39.071Z,34.85
2018-12-26T06:05:46.244Z,34.42
2018-12-26T06:07:53.138Z,34.58
2018-12-26T06:09:59.820Z,34.22
2018-12-26T06:12:06.952Z,35.06
2018-12-26T06:14:14.235Z,34.85
2018-12-26T06:16:24.251Z,34.70
2018-12-26T06:18:31.389Z,35.22
2018-12-26T06:20:39.249Z,35.04
2018-12-26T06:22:45.994Z,34.31
2018-12-26T06:24:53.917Z,35.14
2018-12-26T06:27:00.620Z,34.19
2018-12-26T06:29:07.371Z,35.37
2018-12-26T06:31:14.932Z,35.56
2018-12-26T06:33:21.947Z,35.13
2018-12-26T06:35:29.012Z,35.21
2018-12-26T06:37:36.232Z,35.43
2018-12-26T06:39:43.868Z,34.84
2018-12-26T06:41:50.632Z,35.15
2018-12-26T06:43:58.056Z,34.85
2018-12-26T06:46:04.813Z,35.14
2018-12-26T06:48:12.460Z,35.62
2018-12-26T06:50:21.030Z,34.92
2018-12-26T06:52:29.129Z,35.10
2018-12-26T06:54:36.599Z,34.18
2018-12-26T06:56:43.672Z,33.69
2018-12-26T06:58:50.909Z,33.71
2018-12-26T07:00:59.283Z,33.82
2018-12-26T07:03:08.792Z,33.22
2018-12-26T07:05:16.186Z,32.73
2018-12-26T07:07:24.380Z,34.07
2018-12-26T07:09:31.859Z,33.02
2018-12-26T07:11:39.905Z,34.24
2018-12-26T07:13:48.674Z,33.80
2018-12-26T07:15:56.499Z,33.86
2018-12-26T07:18:04.321Z,34.63
2018-12-26T07:20:11.652Z,34.15
2018-12-26T07:22:18.882Z,34.22
2018-12-26T07:24:26.197Z,34.75
2018-12-26T07:26:34.136Z,34.48
2018-12-26T07:28:41.675Z,34.56
2018-12-26T07:30:49.203Z,35.26
2018-12-26T07:32:56.453Z,35.04
2018-12-26T07:35:03.767Z,35.13
2018-12-26T07:37:11.079Z,35.21
2018-12-26T07:39:18.119Z,34.51
2018-12-26T07:41:25.324Z,34.66
2018-12-26T07:43:34.058Z,34.61
2018-12-26T07:45:41.175Z,34.53
2018-12-26T07:47:48.452Z,35.14
2018-12-26T07:49:55.599Z,34.57
2018-12-26T07:52:03.503Z,34.82
2018-12-26T07:54:11.103Z,35.03
2018-12-26T07:56:18.975Z,35.32
2018-12-26T07:58:26.237Z,34.92
2018-12-26T08:00:33.441Z,35.02
2018-12-26T08:02:40.862Z,34.80
2018-12-26T08:04:48.283Z,34.85
2018-12-26T08:06:55.219Z,34.29
2018-12-26T08:09:02.640Z,33.99
2018-12-26T08:11:10.288Z,34.13
2018-12-26T08:13:17.457Z,33.48
2018-12-26T08:15:24.543Z,33.62
2018-12-26T08:17:32.626Z,33.27
2018-12-26T08:19:39.914Z,33.00
2018-12-26T08:21:46.979Z,32.88
2018-12-26T08:23:54.203Z,32.78
2018-12-26T08:26:01.438Z,33.09
2018-12-26T08:28:08.593Z,33.63
2018-12-26T08:30:15.922Z,33.99
2018-12-26T08:32:23.988Z,34.01
2018-12-26T08:34:31.539Z,34.84
2018-12-26T08:36:39.594Z,34.89
2018-12-26T08:38:47.506Z,34.16
2018-12-26T08:40:54.627Z,34.60
2018-12-26T08:43:01.979Z,34.57
2018-12-26T08:45:09.518Z,34.79
2018-12-26T08:47:18.133Z,34.71
2018-12-26T08:49:25.143Z,35.23
2018-12-26T08:51:32.935Z,34.41
2018-12-26T08:53:40.165Z,34.77
2018-12-26T08:55:47.413Z,34.41
2018-12-26T08:57:54.444Z,34.91
2018-12-26T09:00:01.520Z,35.16
2018-12-26T09:02:08.996Z,35.33
2018-12-26T09:04:16.186Z,34.91
2018-12-26T09:06:23.205Z,34.86
2018-12-26T09:08:30.495Z,34.91
2018-12-26T09:10:37.765Z,35.32
2018-12-26T09:12:45.068Z,34.79
2018-12-26T09:14:52.150Z,34.90
2018-12-26T09:16:59.873Z,34.50
2018-12-26T09:19:06.907Z,33.95
2018-12-26T09:21:14.146Z,33.52
2018-12-26T09:23:21.446Z,34.13
2018-12-26T09:25:29.247Z,32.94
2018-12-26T09:27:37.694Z,32.79
2018-12-26T09:29:45.001Z,32.93
2018-12-26T09:31:52.024Z,32.95
2018-12-26T09:33:59.290Z,32.52
2018-12-26T09:36:06.829Z,33.18
2018-12-26T09:38:14.156Z,33.98
2018-12-26T09:40:21.394Z,33.93
2018-12-26T09:42:28.866Z,34.33
2018-12-26T09:44:35.908Z,34.57
2018-12-26T09:46:43.168Z,34.07
2018-12-26T09:48:50.438Z,34.63
2018-12-26T09:50:57.451Z,35.03
2018-12-26T09:53:04.507Z,34.99
2018-12-26T09:55:11.836Z,34.77
2018-12-26T09:57:18.811Z,34.81
2018-12-26T09:59:26.237Z,35.07
2018-12-26T10:01:33.483Z,34.98
2018-12-26T10:03:40.537Z,35.31
2018-12-26T10:05:47.919Z,34.77
2018-12-26T10:07:54.952Z,35.23
2018-12-26T10:10:02.096Z,35.33
2018-12-26T10:12:09.229Z,35.54
2018-12-26T10:14:16.494Z,36.06
2018-12-26T10:16:23.943Z,35.82
2018-12-26T10:18:31.353Z,35.31
2018-12-26T10:20:39.076Z,35.85
2018-12-26T10:22:46.434Z,35.22
2018-12-26T10:24:53.470Z,34.70
2018-12-26T10:27:01.178Z,34.34
2018-12-26T10:29:08.165Z,34.11
2018-12-26T10:31:15.348Z,33.52
2018-12-26T10:33:22.749Z,33.56
2018-12-26T10:35:29.818Z,33.14
2018-12-26T10:37:37.158Z,33.14
2018-12-26T10:39:44.401Z,32.74
2018-12-26T10:41:51.645Z,32.92
2018-12-26T10:43:59.051Z,32.66
2018-12-26T10:46:06.154Z,32.51
2018-12-26T10:48:13.263Z,32.70
2018-12-26T10:50:20.581Z,33.92
2018-12-26T10:52:27.842Z,34.51
2018-12-26T10:54:35.322Z,34.82
2018-12-26T10:56:42.730Z,34.77
2018-12-26T10:58:49.765Z,34.69
2018-12-26T11:00:56.949Z,34.74
2018-12-26T11:03:04.781Z,34.43
2018-12-26T11:05:12.126Z,34.46
2018-12-26T11:07:19.405Z,34.53
2018-12-26T11:09:26.876Z,35.25
2018-12-26T11:11:34.200Z,35.39
2018-12-26T11:13:41.577Z,35.00
2018-12-26T11:15:48.601Z,34.91
2018-12-26T11:17:55.777Z,35.72
2018-12-26T11:20:04.495Z,35.79
2018-12-26T11:22:11.712Z,35.26
2018-12-26T11:24:18.811Z,35.89
2018-12-26T11:26:26.645Z,35.90
2018-12-26T11:28:33.633Z,35.85
2018-12-26T11:30:41.019Z,35.42
2018-12-26T11:32:48.341Z,35.93
2018-12-26T11:34:56.477Z,35.64
2018-12-26T11:37:03.696Z,35.83
2018-12-26T11:39:10.919Z,35.96
2018-12-26T11:41:18.775Z,36.20
2018-12-26T11:43:26.010Z,35.88
2018-12-26T11:45:33.357Z,36.03
2018-12-26T11:47:40.584Z,36.00
2018-12-26T11:49:47.798Z,36.21
2018-12-26T11:51:55.042Z,35.46
2018-12-26T11:54:02.298Z,35.75
2018-12-26T11:56:09.397Z,34.74
2018-12-26T11:58:16.376Z,34.42
2018-12-26T12:00:23.551Z,33.89
2018-12-26T12:02:30.980Z,33.61
2018-12-26T12:04:38.425Z,33.82
2018-12-26T12:06:45.387Z,33.45
2018-12-26T12:08:52.713Z,33.17
2018-12-26T12:11:00.222Z,32.77
2018-12-26T12:13:07.486Z,32.67
2018-12-26T12:15:14.810Z,32.49
2018-12-26T12:17:21.841Z,32.25
2018-12-26T12:19:28.951Z,33.88
2018-12-26T12:21:36.588Z,34.23
2018-12-26T12:23:43.952Z,34.03
2018-12-26T12:25:51.385Z,34.83
2018-12-26T12:27:58.655Z,34.90
2018-12-26T12:30:05.792Z,35.45
2018-12-26T12:32:12.992Z,35.54
2018-12-26T12:34:20.330Z,35.69
2018-12-26T12:36:27.698Z,35.03
2018-12-26T12:38:35.339Z,34.59
2018-12-26T12:40:42.733Z,33.65
2018-12-26T12:42:50.134Z,33.35
2018-12-26T12:44:57.489Z,33.19
2018-12-26T12:47:04.859Z,32.92
2018-12-26T12:49:12.202Z,32.87
2018-12-26T12:51:19.336Z,32.73
2018-12-26T12:53:26.695Z,32.60
2018-12-26T12:55:33.807Z,32.75
2018-12-26T12:57:40.989Z,32.74
2018-12-26T12:59:49.659Z,32.44
2018-12-26T13:01:57.421Z,32.25
2018-12-26T13:04:04.548Z,32.58
2018-12-26T13:06:11.960Z,32.36
2018-12-26T13:08:19.186Z,32.10
2018-12-26T13:10:26.519Z,32.87
2018-12-26T13:12:33.910Z,32.84
2018-12-26T13:14:41.015Z,31.79
2018-12-26T13:16:48.201Z,31.72
2018-12-26T13:18:55.584Z,32.27
2018-12-26T13:21:02.891Z,31.72
2018-12-26T13:23:10.235Z,31.45
2018-12-26T13:25:17.189Z,31.61
2018-12-26T13:27:24.376Z,33.26
2018-12-26T13:29:31.691Z,33.04
2018-12-26T13:31:39.175Z,34.29
2018-12-26T13:33:46.045Z,34.94
2018-12-26T13:35:53.828Z,34.33
2018-12-26T13:38:00.977Z,35.07
2018-12-26T13:40:08.186Z,34.18
2018-12-26T13:42:15.409Z,33.63
2018-12-26T13:44:23.496Z,33.29
2018-12-26T13:46:33.843Z,33.08
2018-12-26T13:48:39.777Z,32.71
2018-12-26T13:50:46.855Z,32.39
2018-12-26T13:52:53.939Z,33.23
2018-12-26T13:55:01.154Z,32.30
2018-12-26T13:57:08.724Z,32.53
2018-12-26T13:59:15.708Z,31.90
2018-12-26T14:01:22.894Z,31.89
2018-12-26T14:03:30.298Z,31.99
2018-12-26T14:05:37.243Z,32.14
2018-12-26T14:07:44.456Z,32.35
2018-12-26T14:09:51.715Z,32.51
2018-12-26T14:11:59.379Z,32.60
2018-12-26T14:14:06.756Z,32.65
2018-12-26T14:16:14.871Z,32.56
2018-12-26T14:18:21.979Z,32.60
2018-12-26T14:20:29.246Z,32.70
2018-12-26T14:22:37.186Z,32.79
2018-12-26T14:24:44.353Z,32.74
2018-12-26T14:26:51.737Z,32.68
2018-12-26T14:28:59.369Z,32.59
2018-12-26T14:31:06.634Z,32.30
2018-12-26T14:33:14.584Z,32.26
2018-12-26T14:35:22.210Z,32.05
2018-12-26T14:37:29.452Z,32.41
2018-12-26T14:39:37.163Z,32.12
2018-12-26T14:41:44.132Z,32.00
2018-12-26T14:43:51.329Z,31.63
2018-12-26T14:45:58.297Z,32.11
2018-12-26T14:48:05.573Z,31.73
2018-12-26T14:50:12.246Z,31.61
2018-12-26T14:52:18.944Z,31.66
2018-12-26T14:54:26.016Z,31.72
2018-12-26T14:56:33.289Z,31.79
2018-12-26T14:58:40.640Z,31.87
2018-12-26T15:00:49.246Z,31.92
2018-12-26T15:02:56.354Z,32.26
2018-12-26T15:05:03.726Z,32.00
2018-12-26T15:07:11.132Z,32.16
2018-12-26T15:09:18.161Z,32.14
2018-12-26T15:11:26.150Z,32.24
2018-12-26T15:13:33.357Z,32.20
2018-12-26T15:15:40.619Z,32.29
2018-12-26T15:17:47.313Z,32.48
2018-12-26T15:19:54.579Z,32.29
2018-12-26T15:22:01.691Z,32.12
2018-12-26T15:24:08.342Z,32.13
2018-12-26T15:26:15.308Z,32.04
2018-12-26T15:28:22.546Z,31.88
2018-12-26T15:30:30.544Z,31.94
2018-12-26T15:32:37.943Z,31.59
2018-12-26T15:34:45.380Z,31.44
2018-12-26T15:36:54.052Z,31.24
2018-12-26T15:39:01.557Z,31.24
2018-12-26T15:41:10.293Z,31.21
2018-12-26T15:43:17.779Z,31.35
2018-12-26T15:45:25.806Z,31.56
2018-12-26T15:47:33.070Z,31.58
2018-12-26T15:49:40.857Z,31.63
2018-12-26T15:51:48.190Z,32.17
2018-12-26T15:53:56.205Z,31.80
2018-12-26T15:56:03.659Z,32.01
2018-12-26T15:58:10.463Z,31.80
2018-12-26T16:00:17.762Z,32.13
2018-12-26T16:02:24.794Z,31.94
2018-12-26T16:04:42.837Z,32.22
2018-12-26T16:07:02.923Z,32.78
2018-12-26T16:09:13.264Z,33.46
2018-12-26T16:11:20.066Z,33.54
2018-12-26T16:13:27.166Z,34.05
2018-12-26T16:15:39.642Z,33.99
2018-12-26T16:17:46.999Z,34.42
2018-12-26T16:19:54.567Z,34.45
2018-12-26T16:22:01.960Z,34.46
2018-12-26T16:24:09.249Z,33.71
2018-12-26T16:26:16.707Z,33.26
2018-12-26T16:28:23.789Z,33.26
2018-12-26T16:30:36.446Z,32.83
2018-12-26T16:32:56.026Z,33.05
2018-12-26T16:35:11.659Z,33.46
2018-12-26T16:37:18.878Z,32.89
2018-12-26T16:39:26.145Z,33.12
2018-12-26T16:41:33.464Z,33.08
2018-12-26T16:43:40.517Z,33.61
2018-12-26T16:45:47.590Z,34.25
2018-12-26T16:47:54.837Z,33.96
2018-12-26T16:50:02.322Z,34.23
2018-12-26T16:52:09.358Z,34.14
2018-12-26T16:54:16.620Z,33.05
2018-12-26T16:56:33.519Z,33.97
2018-12-26T16:58:40.852Z,34.10
2018-12-26T17:00:54.986Z,33.95
2018-12-26T17:03:36.329Z,33.83
2018-12-26T17:05:43.672Z,34.13
2018-12-26T17:07:50.875Z,34.41
2018-12-26T17:09:59.196Z,33.31
2018-12-26T17:12:27.736Z,32.10
2018-12-26T17:14:35.229Z,32.40
2018-12-26T17:16:42.799Z,32.88
2018-12-26T17:19:16.970Z,32.97
2018-12-26T17:21:27.979Z,33.35
2018-12-26T17:23:35.224Z,32.71
2018-12-26T17:25:42.319Z,32.53
2018-12-26T17:27:49.638Z,32.75
2018-12-26T17:29:57.297Z,32.40
2018-12-26T17:32:04.526Z,32.74
2018-12-26T17:34:11.643Z,32.54
2018-12-26T17:36:19.027Z,32.00
2018-12-26T17:38:29.554Z,31.27
2018-12-26T17:40:45.739Z,31.96
2018-12-26T17:43:06.829Z,31.91
2018-12-26T17:45:21.427Z,32.67
2018-12-26T17:47:28.596Z,32.44
2018-12-26T17:49:36.019Z,32.93
2018-12-26T17:51:43.374Z,33.18
2018-12-26T17:54:08.625Z,33.23
2018-12-26T17:56:30.732Z,33.20
2018-12-26T17:58:41.884Z,33.51
2018-12-26T18:01:14.843Z,33.46
2018-12-26T18:03:22.429Z,33.59
2018-12-26T18:05:35.018Z,33.67
2018-12-26T18:07:42.213Z,33.92
2018-12-26T18:09:49.748Z,33.69
2018-12-26T18:12:11.296Z,33.99
2018-12-26T18:14:06.094Z,34.19
2018-12-26T18:16:19.301Z,33.82
2018-12-26T18:18:26.531Z,34.08
2018-12-26T18:20:49.322Z,33.76
2018-12-26T18:23:10.532Z,34.34
2018-12-26T18:25:24.739Z,34.35
2018-12-26T18:27:32.992Z,34.49
2018-12-26T18:29:41.108Z,34.62
2018-12-26T18:31:48.359Z,34.59
2018-12-26T18:33:56.904Z,34.69
2018-12-26T18:36:04.407Z,34.67
2018-12-26T18:38:11.638Z,34.73
2018-12-26T18:40:18.810Z,34.60
2018-12-26T18:42:27.479Z,34.58
2018-12-26T18:44:40.622Z,34.52
2018-12-26T18:46:48.443Z,34.46
2018-12-26T18:48:56.554Z,34.28
2018-12-26T18:51:03.922Z,34.60
2018-12-26T18:53:11.790Z,34.46
2018-12-26T18:55:23.071Z,34.53
2018-12-26T18:57:31.252Z,34.25
2018-12-26T18:59:38.312Z,34.25
2018-12-26T19:01:45.457Z,34.19
2018-12-26T19:03:52.456Z,34.31
2018-12-26T19:05:59.572Z,34.37
2018-12-26T19:08:09.535Z,34.30
2018-12-26T19:10:16.446Z,34.29
2018-12-26T19:12:23.752Z,34.39
2018-12-26T19:14:31.042Z,34.25
2018-12-26T19:16:38.326Z,34.33
2018-12-26T19:18:45.617Z,34.30
2018-12-26T19:20:52.735Z,34.28
2018-12-26T19:22:59.929Z,34.26
2018-12-26T19:25:07.321Z,34.41
2018-12-26T19:27:14.405Z,34.59
2018-12-26T19:29:21.583Z,34.31
2018-12-26T19:31:28.525Z,34.40
2018-12-26T19:33:36.534Z,34.05
2018-12-26T19:35:44.820Z,33.16
2018-12-26T19:37:52.440Z,32.57
2018-12-26T19:40:00.166Z,32.41
2018-12-26T19:42:07.472Z,32.26
2018-12-26T19:44:14.710Z,32.52
2018-12-26T19:46:22.087Z,31.80
2018-12-26T19:48:29.380Z,32.90
2018-12-26T19:50:36.513Z,32.06
2018-12-26T19:52:48.805Z,31.85
2018-12-26T19:54:56.652Z,31.26
2018-12-26T19:57:10.234Z,31.21
2018-12-26T19:59:19.016Z,31.51
2018-12-26T20:01:26.187Z,32.84
2018-12-26T20:03:33.472Z,32.13
2018-12-26T20:05:40.938Z,32.83
2018-12-26T20:07:48.206Z,32.84
2018-12-26T20:09:55.252Z,32.17
2018-12-26T20:12:07.501Z,32.75
2018-12-26T20:14:15.014Z,32.57
2018-12-26T20:16:22.975Z,33.08
2018-12-26T20:18:30.135Z,33.93
2018-12-26T20:20:37.445Z,33.40
2018-12-26T20:22:44.521Z,33.81
2018-12-26T20:24:52.125Z,34.13
2018-12-26T20:26:59.906Z,34.21
2018-12-26T20:29:07.162Z,34.32
2018-12-26T20:31:14.645Z,34.50
2018-12-26T20:33:21.892Z,34.57
2018-12-26T20:35:29.276Z,34.88
2018-12-26T20:37:36.386Z,34.84
2018-12-26T20:39:43.488Z,35.05
2018-12-26T20:41:50.930Z,34.21
2018-12-26T20:43:58.827Z,35.42
2018-12-26T20:46:06.126Z,35.00
2018-12-26T20:48:13.438Z,35.65
2018-12-26T20:50:20.576Z,35.81
2018-12-26T20:52:27.803Z,35.57
2018-12-26T20:54:35.166Z,37.43
2018-12-26T20:56:42.754Z,34.85
2018-12-26T20:58:50.872Z,34.93
2018-12-26T21:00:58.140Z,34.68
2018-12-26T21:03:09.983Z,34.03
2018-12-26T21:05:20.041Z,33.45
2018-12-26T21:07:27.322Z,34.50
2018-12-26T21:09:34.471Z,34.64
2018-12-26T21:12:01.222Z,35.49
2018-12-26T21:14:08.671Z,35.45
2018-12-26T21:16:15.878Z,36.01
2018-12-26T21:18:22.943Z,35.92
2018-12-26T21:20:30.453Z,36.42
2018-12-26T21:22:41.535Z,36.47
2018-12-26T21:25:16.911Z,37.24
2018-12-26T21:27:24.984Z,37.43
2018-12-26T21:29:32.492Z,37.44
2018-12-26T21:31:39.640Z,36.22
2018-12-26T21:33:46.930Z,37.15
2018-12-26T21:35:55.093Z,36.41
2018-12-26T21:38:02.692Z,37.18
2018-12-26T21:40:10.503Z,36.88
2018-12-26T21:42:17.775Z,37.43
2018-12-26T21:44:24.947Z,37.14
2018-12-26T21:46:33.009Z,37.12
2018-12-26T21:48:41.030Z,37.56
2018-12-26T21:51:44.323Z,37.56
2018-12-26T21:54:42.577Z,37.77
2018-12-26T21:57:16.096Z,37.97
2018-12-26T21:59:23.119Z,37.22
2018-12-26T22:01:30.293Z,36.54
2018-12-26T22:03:37.275Z,37.66
2018-12-26T22:05:45.224Z,36.77
2018-12-26T22:07:52.399Z,37.25
2018-12-26T22:10:00.452Z,36.97
2018-12-26T22:12:31.534Z,36.75
2018-12-26T22:14:47.804Z,37.17
2018-12-26T22:17:11.719Z,36.34
2018-12-26T22:19:18.940Z,36.60
2018-12-26T22:21:26.735Z,36.72
2018-12-26T22:23:33.980Z,36.51
2018-12-26T22:25:41.746Z,36.51
2018-12-26T22:27:48.918Z,36.50
2018-12-26T22:29:56.187Z,36.20
2018-12-26T22:32:04.478Z,36.02
2018-12-26T22:34:11.929Z,36.17
2018-12-26T22:36:19.329Z,36.26
2018-12-26T22:38:44.539Z,36.42
2018-12-26T22:40:53.751Z,36.52
2018-12-26T22:43:11.131Z,35.31
2018-12-26T22:45:43.569Z,36.84
2018-12-26T22:47:44.583Z,35.59
2018-12-26T22:49:51.821Z,34.53
2018-12-26T22:51:59.096Z,34.30
2018-12-26T22:54:08.272Z,34.30
2018-12-26T22:56:15.317Z,33.74
2018-12-26T22:58:22.622Z,34.19
2018-12-26T23:00:42.068Z,35.27
2018-12-26T23:02:50.178Z,34.97
2018-12-26T23:04:57.660Z,34.32
2018-12-26T23:07:04.946Z,34.42
2018-12-26T23:09:12.974Z,34.22
2018-12-26T23:11:20.647Z,33.85
2018-12-26T23:13:28.299Z,34.64
2018-12-26T23:15:35.485Z,34.57
2018-12-26T23:17:42.820Z,34.73
2018-12-26T23:19:50.089Z,35.05
2018-12-26T23:21:57.187Z,35.01
2018-12-26T23:24:03.892Z,35.03
2018-12-26T23:26:11.185Z,35.05
2018-12-26T23:28:18.865Z,35.28
2018-12-26T23:30:25.717Z,35.36
2018-12-26T23:32:32.997Z,35.72
2018-12-26T23:34:40.324Z,35.17
2018-12-26T23:36:48.107Z,35.41
2018-12-26T23:38:55.414Z,35.36
2018-12-26T23:41:02.536Z,35.16
2018-12-26T23:43:09.879Z,35.60
2018-12-26T23:45:17.303Z,34.46
2018-12-26T23:47:25.190Z,35.48
2018-12-26T23:49:32.492Z,35.54
2018-12-26T23:51:39.787Z,36.18
2018-12-26T23:53:47.130Z,36.63
2018-12-26T23:55:54.458Z,36.18
2018-12-26T23:58:01.729Z,35.84
